Time;durP1;ratioP1;P1;durP2;ratioP2;P2;SDS_P1;SDS_P2;PMS_P1;PMS_P2;Temp;Humidity;BMP_temperature;BMP_pressure;BME280_temperature;BME280_humidity;BME280_pressure;Samples;Min_cycle;Max_cycle;Signal;HPM_P1;HPM_P2
2021/12/08 00:08:48;;;;;;;0.95;0.20;;;-4.20;97.30;;;;;;20814392;28;20037;-52
2021/12/08 00:18:51;;;;;;;1.10;0.30;;;-4.30;97.40;;;;;;20813247;28;20092;-49
2021/12/08 00:28:54;;;;;;;1.38;0.35;;;-4.50;97.30;;;;;;20812986;28;20970;-52
2021/12/08 00:38:57;;;;;;;1.48;0.50;;;-4.40;98.10;;;;;;20810931;28;20115;-48
2021/12/08 00:48:59;;;;;;;0.50;0.20;;;-4.30;97.40;;;;;;20812622;28;20033;-49
2021/12/08 00:59:03;;;;;;;0.47;0.20;;;-4.40;97.40;;;;;;20810400;28;20394;-51
2021/12/08 01:09:06;;;;;;;0.80;0.30;;;-4.30;98.00;;;;;;20810887;28;20084;-49
2021/12/08 01:19:09;;;;;;;1.25;0.45;;;-4.40;96.90;;;;;;20659221;28;20042;-49
2021/12/08 01:29:12;;;;;;;1.60;0.50;;;-4.50;97.60;;;;;;20661838;28;20054;-50
2021/12/08 01:39:14;;;;;;;3.33;0.60;;;-4.40;97.20;;;;;;20780939;28;20045;-51
2021/12/08 01:49:17;;;;;;;1.90;0.52;;;-4.30;97.50;;;;;;20806748;28;20037;-49
2021/12/08 01:59:19;;;;;;;1.58;0.52;;;-4.40;98.80;;;;;;20805222;28;20057;-50
2021/12/08 02:09:23;;;;;;;1.35;0.30;;;-3.80;97.00;;;;;;20805224;28;20227;-51
2021/12/08 02:19:26;;;;;;;1.58;0.40;;;-3.80;97.00;;;;;;20804245;28;20041;-49
2021/12/08 02:29:37;;;;;;;0.93;0.30;;;-3.80;98.20;;;;;;20803768;28;20095;-50
2021/12/08 02:50:01;;;;;;;1.02;0.43;;;-2.50;97.00;;;;;;20802305;28;20042;-50
2021/12/08 03:00:10;;;;;;;2.30;0.85;;;-2.10;97.80;;;;;;20801664;28;20087;-49
2021/12/08 03:10:17;;;;;;;1.15;0.63;;;-2.10;98.90;;;;;;20800738;28;20107;-49
2021/12/08 03:20:37;;;;;;;1.30;0.70;;;-2.10;99.50;;;;;;20657507;28;20038;-50
2021/12/08 03:30:53;;;;;;;5.47;1.00;;;-2.00;98.70;;;;;;20653894;28;20034;-51
2021/12/08 03:40:58;;;;;;;1.55;1.00;;;-1.90;99.90;;;;;;20724897;28;20104;-54
2021/12/08 03:51:01;;;;;;;1.90;0.90;;;-1.90;99.70;;;;;;20734540;28;20038;-51
2021/12/08 04:01:05;;;;;;;3.20;1.10;;;-1.80;99.30;;;;;;20718553;28;20045;-51
2021/12/08 04:11:11;;;;;;;3.35;1.83;;;-1.80;99.90;;;;;;20736364;28;20549;-55
2021/12/08 04:21:15;;;;;;;3.42;1.50;;;-1.90;99.90;;;;;;20812120;28;20100;-53
2021/12/08 04:31:30;;;;;;;4.10;1.70;;;-1.90;99.90;;;;;;20812859;28;20038;-52
2021/12/08 04:41:39;;;;;;;4.18;1.75;;;-1.90;99.90;;;;;;20812502;28;20053;-53
2021/12/08 04:51:57;;;;;;;3.47;1.75;;;-1.90;99.90;;;;;;20811376;28;20375;-52
2021/12/08 05:02:23;;;;;;;3.67;1.83;;;-1.90;99.90;;;;;;20811202;28;20390;-50
2021/12/08 05:12:31;;;;;;;2.50;1.08;;;-2.00;99.90;;;;;;20812232;28;20041;-50
2021/12/08 05:22:38;;;;;;;4.28;1.63;;;-1.80;99.90;;;;;;20809592;28;20045;-49
2021/12/08 05:32:41;;;;;;;3.25;1.38;;;-1.70;99.90;;;;;;20807547;28;20105;-55
2021/12/08 05:42:44;;;;;;;3.30;1.30;;;-1.60;99.90;;;;;;20807626;28;20482;-49
2021/12/08 05:52:47;;;;;;;2.35;1.30;;;-1.50;99.90;;;;;;20806390;28;20041;-52
2021/12/08 06:02:52;;;;;;;2.78;1.08;;;-1.50;99.20;;;;;;20805756;28;20438;-50
2021/12/08 06:12:55;;;;;;;2.22;1.20;;;-1.60;99.90;;;;;;20805071;28;20401;-49
2021/12/08 06:22:58;;;;;;;3.30;1.55;;;-1.50;99.90;;;;;;20804132;28;20099;-49
2021/12/08 06:33:02;;;;;;;2.22;0.93;;;-1.60;99.90;;;;;;20803698;28;20453;-50
2021/12/08 06:43:09;;;;;;;1.90;1.00;;;-1.60;99.90;;;;;;20818576;28;20057;-52
2021/12/08 06:53:12;;;;;;;3.10;0.73;;;-1.70;99.90;;;;;;20801545;28;20029;-51
2021/12/08 07:13:29;;;;;;;0.40;0.13;;;-1.30;96.70;;;;;;20801184;28;20037;-50
2021/12/08 07:23:45;;;;;;;0.13;0.03;;;-1.10;97.80;;;;;;20801415;28;20107;-50
2021/12/08 07:33:49;;;;;;;0.22;0.10;;;-1.00;98.20;;;;;;20800175;28;20068;-51
2021/12/08 07:43:55;;;;;;;0.20;0.10;;;-1.10;99.70;;;;;;20799784;28;20079;-49
2021/12/08 07:53:58;;;;;;;0.20;0.10;;;-1.10;99.00;;;;;;20809665;28;20067;-51
2021/12/08 08:04:05;;;;;;;0.32;0.20;;;-1.20;99.90;;;;;;20815199;28;20426;-50
2021/12/08 08:14:10;;;;;;;1.27;0.13;;;-1.10;99.90;;;;;;20814336;28;20092;-50
2021/12/08 08:24:13;;;;;;;0.40;0.17;;;-0.90;99.80;;;;;;20814844;28;20064;-49
2021/12/08 08:34:17;;;;;;;0.28;0.10;;;-0.80;99.90;;;;;;20813178;28;20111;-49
2021/12/08 08:44:28;;;;;;;0.10;0.10;;;-0.70;99.90;;;;;;20811868;28;20486;-50
2021/12/08 08:54:40;;;;;;;1.80;0.20;;;-0.60;99.90;;;;;;20811092;28;20112;-50
2021/12/08 09:04:48;;;;;;;0.05;0.00;;;-0.40;99.90;;;;;;20809273;28;20052;-50
2021/12/08 09:15:31;;;;;;;0.20;0.10;;;-0.40;99.90;;;;;;20809580;28;20076;-50
2021/12/08 09:25:42;;;;;;;0.32;0.15;;;-0.50;99.90;;;;;;20572778;28;20102;-50
2021/12/08 09:35:54;;;;;;;0.63;0.40;;;-1.10;99.90;;;;;;20572061;28;20591;-50
2021/12/08 09:46:03;;;;;;;;;;;-1.60;99.90;;;;;;20571979;28;20535;-50
2021/12/08 09:56:05;;;;;;;3.08;0.55;;;-1.90;99.90;;;;;;20634366;28;20387;-55
2021/12/08 10:06:10;;;;;;;1.55;0.57;;;-1.90;99.90;;;;;;20807007;28;20042;-49
2021/12/08 10:16:14;;;;;;;2.65;0.70;;;-1.50;99.90;;;;;;20804432;28;20056;-49
2021/12/08 10:26:22;;;;;;;1.25;0.43;;;-1.10;99.90;;;;;;20803774;28;20030;-49
2021/12/08 10:46:39;;;;;;;4.22;1.42;;;-1.60;99.90;;;;;;20802580;28;20098;-50
2021/12/08 10:56:42;;;;;;;3.33;2.05;;;-2.00;99.90;;;;;;20801627;28;20045;-48
2021/12/08 11:06:47;;;;;;;3.38;1.90;;;-2.40;99.90;;;;;;20801130;28;20057;-49
2021/12/08 11:16:49;;;;;;;3.33;1.83;;;-2.60;99.90;;;;;;20800942;28;20038;-49
2021/12/08 11:26:53;;;;;;;5.57;1.50;;;-2.50;99.90;;;;;;20799611;28;20091;-49
2021/12/08 11:37:01;;;;;;;2.55;1.25;;;-2.40;99.90;;;;;;20799790;28;20530;-52
2021/12/08 11:47:08;;;;;;;3.28;1.20;;;-2.10;99.90;;;;;;20799787;28;20064;-50
2021/12/08 11:57:17;;;;;;;9.10;0.85;;;-2.20;99.90;;;;;;20799295;28;20041;-49
2021/12/08 12:07:21;;;;;;;1.75;0.65;;;-2.40;99.90;;;;;;20798971;28;20107;-50
2021/12/08 12:17:23;;;;;;;1.70;0.60;;;-2.40;99.90;;;;;;20798713;28;20072;-49
2021/12/08 12:27:38;;;;;;;1.25;0.55;;;-2.50;99.90;;;;;;20798207;28;20037;-49
2021/12/08 12:37:41;;;;;;;1.58;0.50;;;-2.20;99.90;;;;;;20786158;28;20111;-50
2021/12/08 12:48:06;;;;;;;0.40;0.25;;;-1.60;99.90;;;;;;20811575;28;20045;-51
2021/12/08 12:58:10;;;;;;;2.55;0.30;;;-1.30;99.90;;;;;;20811222;28;20541;-51
2021/12/08 13:08:27;;;;;;;0.65;0.20;;;-1.00;99.90;;;;;;20794979;28;20033;-50
2021/12/08 13:18:31;;;;;;;0.88;0.40;;;-0.90;99.90;;;;;;20809520;28;20072;-49
2021/12/08 13:29:01;;;;;;;0.38;0.20;;;-1.30;99.90;;;;;;20808883;28;20034;-50
2021/12/08 13:39:04;;;;;;;0.47;0.10;;;-1.50;99.90;;;;;;20807708;28;20042;-50
2021/12/08 13:49:32;;;;;;;0.60;0.10;;;-1.10;99.90;;;;;;20806918;28;20130;-49
2021/12/08 13:59:47;;;;;;;0.10;0.00;;;-1.20;99.90;;;;;;20800333;28;20124;-50
2021/12/08 14:09:59;;;;;;;0.20;0.10;;;-1.10;99.90;;;;;;20805892;28;20045;-48
2021/12/08 14:20:01;;;;;;;0.45;0.00;;;-1.10;99.90;;;;;;20804271;28;20034;-49
2021/12/08 14:30:05;;;;;;;0.10;0.03;;;-1.10;99.90;;;;;;20804702;28;20041;-50
2021/12/08 14:40:11;;;;;;;0.00;0.00;;;-0.50;99.90;;;;;;20803127;28;20050;-48
2021/12/08 14:50:20;;;;;;;0.00;0.00;;;-0.20;99.90;;;;;;20803080;28;20362;-48
2021/12/08 15:00:31;;;;;;;0.10;0.00;;;0.00;99.90;;;;;;20802668;28;20037;-49
2021/12/08 15:10:36;;;;;;;0.00;0.00;;;0.10;99.90;;;;;;20802429;28;20037;-50
2021/12/08 15:20:46;;;;;;;0.25;0.00;;;0.10;99.90;;;;;;20801844;28;20042;-50
2021/12/08 15:30:55;;;;;;;0.00;0.00;;;0.10;99.90;;;;;;20802966;28;20037;-49
2021/12/08 15:40:58;;;;;;;0.00;0.00;;;0.00;99.90;;;;;;20735603;28;20054;-49
2021/12/08 15:51:06;;;;;;;0.30;0.00;;;0.10;99.90;;;;;;20776872;28;20087;-49
2021/12/08 16:01:12;;;;;;;0.00;0.00;;;-0.40;99.90;;;;;;20801727;28;20104;-48
2021/12/08 16:11:35;;;;;;;0.00;0.00;;;-1.00;99.90;;;;;;20786344;28;20029;-49
2021/12/08 16:21:38;;;;;;;0.00;0.00;;;-1.20;99.90;;;;;;20813854;28;20033;-51
2021/12/08 16:31:41;;;;;;;0.00;0.00;;;-1.10;99.90;;;;;;20797434;28;20099;-49
2021/12/08 16:52:05;;;;;;;0.35;0.00;;;-1.00;99.90;;;;;;20812625;28;20110;-50
2021/12/08 17:02:08;;;;;;;0.00;0.00;;;-1.00;99.90;;;;;;20811248;28;20061;-49
2021/12/08 17:12:12;;;;;;;0.40;0.10;;;-0.90;99.90;;;;;;20811466;28;20087;-54
2021/12/08 17:22:16;;;;;;;0.20;0.00;;;-0.90;99.90;;;;;;20809231;28;20072;-51
2021/12/08 17:32:21;;;;;;;0.10;0.00;;;-1.00;99.90;;;;;;20773923;28;20029;-48
2021/12/08 17:42:24;;;;;;;0.63;0.03;;;-0.90;99.90;;;;;;20810402;28;20379;-48
2021/12/08 17:52:27;;;;;;;0.20;0.10;;;-0.80;99.90;;;;;;20812525;28;20442;-48
2021/12/08 18:02:30;;;;;;;1.58;0.30;;;-0.60;99.90;;;;;;20810943;28;20041;-49
2021/12/08 18:12:34;;;;;;;0.30;0.20;;;-0.40;99.90;;;;;;20796317;28;20096;-48
2021/12/08 18:22:37;;;;;;;0.10;0.00;;;-0.20;99.90;;;;;;20729904;28;20080;-48
2021/12/08 18:32:40;;;;;;;0.00;0.00;;;0.00;99.90;;;;;;20735812;28;20045;-48
2021/12/08 18:42:42;;;;;;;0.00;0.00;;;0.10;99.90;;;;;;20809279;28;20037;-48
2021/12/08 18:52:45;;;;;;;0.00;0.00;;;0.30;99.90;;;;;;20808032;28;20067;-48
2021/12/08 19:02:48;;;;;;;0.30;0.00;;;0.30;99.90;;;;;;20813631;28;20034;-47
2021/12/08 19:12:52;;;;;;;0.10;0.00;;;0.30;99.90;;;;;;20813558;28;20095;-48
2021/12/08 19:22:56;;;;;;;0.10;0.00;;;0.30;99.90;;;;;;20811520;28;20088;-47
2021/12/08 19:32:58;;;;;;;0.08;0.05;;;0.50;99.90;;;;;;20812616;28;20065;-49
2021/12/08 19:43:05;;;;;;;0.68;0.10;;;0.50;99.90;;;;;;20840306;28;20430;-48
2021/12/08 19:53:08;;;;;;;0.30;0.10;;;0.50;99.90;;;;;;20857434;28;20037;-47
2021/12/08 20:03:12;;;;;;;0.00;0.00;;;0.50;99.90;;;;;;20839373;28;20038;-51
2021/12/08 20:13:15;;;;;;;0.10;0.10;;;0.50;99.90;;;;;;20813112;28;20521;-48
2021/12/08 20:23:22;;;;;;;0.10;0.00;;;0.50;99.90;;;;;;20741827;28;20169;-49
2021/12/08 20:33:25;;;;;;;0.30;0.20;;;0.50;99.90;;;;;;20746475;28;20065;-48
2021/12/08 20:43:28;;;;;;;0.40;0.20;;;0.40;99.90;;;;;;20820167;28;20033;-49
2021/12/08 20:53:31;;;;;;;0.52;0.20;;;0.40;99.90;;;;;;20820328;28;20037;-49
2021/12/08 21:03:34;;;;;;;0.15;0.10;;;0.30;99.90;;;;;;20814819;28;20083;-47
2021/12/08 21:13:36;;;;;;;0.52;0.30;;;0.20;99.90;;;;;;20812991;28;20041;-47
2021/12/08 21:23:40;;;;;;;0.40;0.22;;;0.20;99.90;;;;;;20810428;28;20482;-47
2021/12/08 21:33:48;;;;;;;1.52;0.70;;;0.20;99.90;;;;;;20809680;28;20037;-47
2021/12/08 21:43:57;;;;;;;1.10;0.20;;;0.20;99.90;;;;;;20809483;28;20045;-46
2021/12/08 21:54:00;;;;;;;0.22;0.17;;;0.10;99.90;;;;;;20807366;28;20121;-47
2021/12/08 22:04:03;;;;;;;1.60;0.35;;;0.20;99.90;;;;;;20806189;28;20060;-47
2021/12/08 22:14:06;;;;;;;86.13;4.32;;;0.20;99.90;;;;;;20778923;28;20100;-47
2021/12/08 22:24:09;;;;;;;78.28;4.43;;;0.10;99.90;;;;;;20729472;28;20034;-47
2021/12/08 22:34:15;;;;;;;0.40;0.30;;;0.00;99.90;;;;;;20742845;28;20115;-45
2021/12/08 22:44:18;;;;;;;0.77;0.30;;;-0.10;99.90;;;;;;20806169;28;20029;-44
2021/12/08 22:54:20;;;;;;;0.40;0.20;;;-0.10;99.90;;;;;;20803979;28;20425;-45
2021/12/08 23:04:24;;;;;;;0.50;0.30;;;-0.10;99.90;;;;;;20804820;28;20085;-45
2021/12/08 23:14:28;;;;;;;0.43;0.30;;;-0.10;99.90;;;;;;20804701;28;20068;-47
2021/12/08 23:24:30;;;;;;;0.68;0.20;;;-0.10;99.90;;;;;;20812904;28;20030;-46
2021/12/08 23:34:40;;;;;;;29.13;1.73;;;-0.20;99.90;;;;;;20817538;28;20045;-48
2021/12/08 23:44:43;;;;;;;150.23;8.38;;;-0.10;99.90;;;;;;20810446;28;20033;-49
2021/12/08 23:54:46;;;;;;;0.32;0.15;;;-0.20;99.90;;;;;;20812652;28;20045;-50
